createdAt,value
2018-04-12T00:02:17.134Z,12.77
2018-04-12T00:04:55.114Z,14.23
2018-04-12T00:07:33.199Z,14.00
2018-04-12T00:10:11.696Z,13.97
2018-04-12T00:12:49.433Z,14.00
2018-04-12T00:15:27.300Z,14.47
2018-04-12T00:18:07.897Z,14.50
2018-04-12T00:20:45.989Z,14.13
2018-04-12T00:23:24.871Z,13.83
2018-04-12T00:26:03.621Z,13.93
2018-04-12T00:28:42.301Z,13.37
2018-04-12T00:31:21.337Z,13.27
2018-04-12T00:34:00.686Z,13.03
2018-04-12T00:36:38.613Z,13.03
2018-04-12T00:39:17.852Z,13.10
2018-04-12T00:41:56.615Z,13.63
2018-04-12T00:44:34.544Z,12.33
2018-04-12T00:47:12.403Z,14.00
2018-04-12T00:49:52.391Z,12.60
2018-04-12T00:52:31.211Z,13.50
2018-04-12T00:55:09.451Z,13.03
2018-04-12T00:57:48.416Z,11.87
2018-04-12T01:00:26.421Z,13.13
2018-04-12T01:03:04.532Z,13.43
2018-04-12T01:05:44.253Z,13.77
2018-04-12T01:08:22.988Z,13.10
2018-04-12T01:11:00.991Z,13.13
2018-04-12T01:13:39.193Z,12.33
2018-04-12T01:16:17.250Z,13.30
2018-04-12T01:18:55.523Z,12.87
2018-04-12T01:21:35.251Z,12.50
2018-04-12T01:24:13.457Z,12.47
2018-04-12T01:26:52.419Z,12.40
2018-04-12T01:29:31.003Z,12.53
2018-04-12T01:32:15.454Z,17.97
2018-04-12T01:35:02.142Z,18.17
2018-04-12T01:37:42.937Z,19.10
2018-04-12T01:43:36.145Z,17.00
2018-04-12T01:46:42.395Z,18.57
2018-04-12T01:50:06.833Z,18.90
2018-04-12T01:57:58.461Z,18.47
2018-04-12T02:14:47.282Z,18.10
2018-04-12T02:17:41.217Z,17.57
2018-04-12T02:20:31.787Z,19.13
2018-04-12T02:24:22.448Z,20.17
2018-04-12T02:30:29.218Z,19.40
2018-04-12T02:33:27.646Z,18.80
2018-04-12T02:36:10.699Z,19.90
2018-04-12T02:38:54.030Z,18.13
2018-04-12T02:52:55.045Z,20.90
2018-04-12T02:55:50.435Z,12.80
2018-04-12T02:58:31.366Z,13.73
2018-04-12T03:01:11.948Z,13.67
2018-04-12T03:03:52.279Z,15.00
2018-04-12T03:06:31.794Z,14.97
2018-04-12T03:09:13.490Z,15.03
2018-04-12T03:11:52.392Z,14.43
2018-04-12T03:14:39.333Z,15.83
2018-04-12T03:17:18.660Z,16.23
2018-04-12T03:19:59.656Z,17.33
2018-04-12T03:22:38.997Z,17.10
2018-04-12T03:25:18.241Z,18.03
2018-04-12T03:27:57.552Z,16.50
2018-04-12T03:30:37.888Z,17.07
2018-04-12T03:33:18.195Z,16.37
2018-04-12T03:35:59.061Z,14.73
2018-04-12T03:38:39.170Z,15.03
2018-04-12T03:41:19.144Z,16.13
2018-04-12T03:43:58.380Z,13.93
2018-04-12T03:46:39.118Z,12.77
2018-04-12T03:49:18.161Z,12.53
2018-04-12T03:51:58.349Z,12.33
2018-04-12T03:54:40.049Z,12.70
2018-04-12T03:57:19.443Z,14.17
2018-04-12T04:00:01.805Z,14.53
2018-04-12T04:02:41.259Z,15.80
2018-04-12T04:05:21.018Z,16.97
2018-04-12T04:08:02.473Z,14.83
2018-04-12T04:10:42.897Z,17.07
2018-04-12T04:13:22.533Z,16.27
2018-04-12T04:17:18.587Z,16.03
2018-04-12T04:21:12.799Z,13.37
2018-04-12T04:23:54.703Z,14.07
2018-04-12T04:26:38.392Z,15.03
2018-04-12T04:29:20.425Z,13.47
2018-04-12T04:31:59.775Z,15.90
2018-04-12T04:34:43.928Z,14.63
2018-04-12T04:37:23.118Z,16.10
2018-04-12T04:40:04.950Z,14.93
2018-04-12T04:42:43.976Z,14.23
2018-04-12T04:45:25.439Z,14.63
2018-04-12T04:48:04.892Z,18.33
2018-04-12T04:50:46.125Z,13.63
2018-04-12T04:53:25.528Z,14.07
2018-04-12T04:56:07.735Z,14.20
2018-04-12T04:58:47.491Z,13.80
2018-04-12T05:01:26.645Z,14.20
2018-04-12T05:04:08.301Z,13.97
2018-04-12T05:06:47.992Z,13.67
2018-04-12T05:09:29.764Z,13.33
2018-04-12T05:12:08.870Z,14.27
2018-04-12T05:14:51.189Z,13.70
2018-04-12T05:17:31.334Z,13.97
2018-04-12T05:20:12.049Z,13.37
2018-04-12T05:22:52.386Z,13.37
2018-04-12T05:25:34.986Z,14.67
2018-04-12T05:28:14.403Z,13.50
2018-04-12T05:31:05.481Z,12.97
2018-04-12T05:33:48.740Z,13.03
2018-04-12T05:36:31.483Z,13.70
2018-04-12T05:39:10.560Z,13.57
2018-04-12T05:41:51.738Z,13.37
2018-04-12T05:44:29.737Z,14.40
2018-04-12T05:47:08.995Z,12.43
2018-04-12T05:49:49.034Z,13.50
2018-04-12T05:52:32.077Z,13.03
2018-04-12T05:55:10.556Z,14.47
2018-04-12T05:57:50.748Z,14.00
2018-04-12T06:00:32.000Z,17.17
2018-04-12T06:03:10.003Z,13.87
2018-04-12T06:05:54.345Z,12.97
2018-04-12T06:08:33.712Z,12.77
2018-04-12T06:11:14.739Z,11.90
2018-04-12T06:13:53.457Z,11.97
2018-04-12T06:16:31.540Z,12.00
2018-04-12T06:19:14.367Z,11.70
2018-04-12T06:21:52.839Z,13.67
2018-04-12T06:24:40.090Z,14.37
2018-04-12T06:27:18.164Z,13.80
2018-04-12T06:29:57.196Z,13.60
2018-04-12T06:32:36.362Z,14.33
2018-04-12T06:35:14.458Z,13.47
2018-04-12T06:37:54.061Z,12.70
2018-04-12T06:40:36.487Z,14.03
2018-04-12T06:43:15.970Z,15.60
2018-04-12T06:45:55.984Z,14.30
2018-04-12T06:48:37.919Z,12.57
2018-04-12T06:51:16.595Z,14.57
2018-04-12T06:53:56.651Z,15.97
2018-04-12T06:56:36.786Z,15.43
2018-04-12T06:59:15.737Z,12.17
2018-04-12T07:01:58.509Z,11.13
2018-04-12T07:04:45.038Z,12.30
2018-04-12T07:07:22.888Z,11.53
2018-04-12T07:10:02.807Z,11.10
2018-04-12T07:12:41.131Z,10.37
2018-04-12T07:15:18.978Z,10.43
2018-04-12T07:18:00.730Z,11.13
2018-04-12T07:20:39.530Z,10.03
2018-04-12T07:23:19.253Z,9.43
2018-04-12T07:25:58.870Z,10.70
2018-04-12T07:28:40.947Z,10.30
2018-04-12T07:31:20.175Z,8.30
2018-04-12T07:34:02.132Z,8.00
2018-04-12T07:36:39.950Z,9.00
2018-04-12T07:39:20.571Z,8.17
2018-04-12T07:42:02.304Z,6.47
2018-04-12T07:44:41.443Z,6.87
2018-04-12T07:47:23.193Z,8.20
2018-04-12T07:50:03.292Z,8.87
2018-04-12T07:52:43.298Z,7.70
2018-04-12T07:55:26.400Z,8.23
2018-04-12T07:58:06.531Z,6.53
2018-04-12T08:00:50.108Z,7.20
2018-04-12T08:03:28.807Z,7.60
2018-04-12T08:06:06.956Z,6.83
2018-04-12T08:08:48.764Z,6.70
2018-04-12T08:11:28.556Z,7.17
2018-04-12T08:14:07.212Z,5.90
2018-04-12T08:16:45.609Z,5.80
2018-04-12T08:19:25.185Z,5.37
2018-04-12T08:22:04.388Z,4.77
2018-04-12T08:24:45.528Z,5.73
2018-04-12T08:27:27.092Z,5.70
2018-04-12T08:30:10.659Z,6.27
2018-04-12T08:32:51.080Z,5.90
2018-04-12T08:35:29.171Z,6.20
2018-04-12T08:38:12.030Z,5.70
2018-04-12T08:40:51.572Z,6.17
2018-04-12T08:43:30.075Z,5.60
2018-04-12T08:46:13.660Z,5.70
2018-04-12T08:48:52.420Z,6.40
2018-04-12T08:51:31.666Z,5.50
2018-04-12T08:54:15.884Z,5.93
2018-04-12T08:56:53.546Z,6.03
2018-04-12T08:59:32.126Z,6.70
2018-04-12T09:02:15.025Z,6.00
2018-04-12T09:04:57.622Z,6.30
2018-04-12T09:07:37.304Z,5.53
2018-04-12T09:10:18.928Z,5.97
2018-04-12T09:12:59.610Z,6.07
2018-04-12T09:15:37.495Z,5.40
2018-04-12T09:18:21.889Z,5.40
2018-04-12T09:21:01.338Z,6.47
2018-04-12T09:23:41.364Z,6.30
2018-04-12T09:26:34.306Z,6.07
2018-04-12T09:29:17.677Z,5.20
2018-04-12T09:31:55.746Z,6.63
2018-04-12T09:37:30.092Z,5.30
2018-04-12T09:40:19.238Z,5.40
2018-04-12T09:42:59.357Z,6.10
2018-04-12T09:45:37.815Z,4.77
2018-04-12T09:48:19.052Z,4.67
2018-04-12T09:51:04.023Z,4.90
2018-04-12T09:53:43.408Z,5.30
2018-04-12T09:56:24.162Z,5.40
2018-04-12T09:59:06.313Z,6.13
2018-04-12T10:01:55.554Z,5.30
2018-04-12T10:09:46.963Z,4.70
2018-04-12T10:12:26.060Z,4.77
2018-04-12T10:15:04.267Z,5.40
2018-04-12T10:17:56.461Z,4.33
2018-04-12T10:20:39.715Z,4.57
2018-04-12T10:26:46.127Z,4.97
2018-04-12T10:29:24.063Z,5.00
2018-04-12T10:32:03.817Z,3.90
2018-04-12T10:34:46.115Z,3.93
2018-04-12T10:37:24.559Z,4.97
2018-04-12T10:40:03.642Z,5.47
2018-04-12T10:42:50.796Z,5.10
2018-04-12T10:45:32.235Z,4.80
2018-04-12T10:48:12.351Z,4.50
2018-04-12T10:51:02.981Z,4.87
2018-04-12T10:53:49.603Z,4.47
2018-04-12T10:56:28.504Z,4.17
2018-04-12T10:59:07.166Z,4.20
2018-04-12T11:01:51.199Z,4.60
2018-04-12T11:04:29.284Z,4.77
2018-04-12T11:07:07.274Z,4.30
2018-04-12T11:09:50.698Z,4.53
2018-04-12T11:12:28.579Z,4.47
2018-04-12T11:15:07.473Z,4.40
2018-04-12T11:17:50.092Z,4.87
2018-04-12T11:20:29.173Z,5.23
2018-04-12T11:23:08.103Z,4.80
2018-04-12T11:25:49.166Z,5.67
2018-04-12T11:28:28.975Z,5.03
2018-04-12T11:31:09.563Z,4.47
2018-04-12T11:33:53.263Z,4.33
2018-04-12T11:36:31.926Z,4.87
2018-04-12T11:39:13.733Z,4.90
2018-04-12T11:41:57.957Z,4.63
2018-04-12T11:44:35.756Z,4.93
2018-04-12T11:47:15.684Z,5.17
2018-04-12T11:49:53.406Z,4.47
2018-04-12T11:52:33.357Z,5.37
2018-04-12T11:55:14.627Z,4.07
2018-04-12T11:57:54.311Z,5.00
2018-04-12T12:00:40.541Z,4.53
2018-04-12T12:03:19.367Z,5.10
2018-04-12T12:05:59.288Z,5.03
2018-04-12T12:08:38.174Z,4.53
2018-04-12T12:11:17.041Z,4.50
2018-04-12T12:13:59.638Z,4.47
2018-04-12T12:16:38.214Z,5.40
2018-04-12T12:19:16.391Z,4.83
2018-04-12T12:21:57.974Z,4.47
2018-04-12T12:24:36.804Z,4.10
2018-04-12T12:27:17.463Z,4.87
2018-04-12T12:29:57.817Z,6.13
2018-04-12T12:32:38.609Z,4.50
2018-04-12T12:35:21.001Z,4.10
2018-04-12T12:38:14.667Z,4.53
2018-04-12T12:41:15.968Z,4.07
2018-04-12T12:44:00.617Z,3.47
2018-04-12T12:46:56.531Z,4.20
2018-04-12T12:49:39.772Z,3.30
2018-04-12T12:52:26.363Z,4.47
2018-04-12T12:55:14.987Z,4.27
2018-04-12T12:58:01.005Z,5.10
2018-04-12T13:00:45.293Z,4.83
2018-04-12T13:03:37.010Z,3.67
2018-04-12T13:06:26.912Z,4.37
2018-04-12T13:09:10.398Z,4.13
2018-04-12T13:12:00.543Z,4.30
2018-04-12T13:14:50.902Z,4.17
2018-04-12T13:17:38.545Z,4.90
2018-04-12T13:20:26.310Z,4.50
2018-04-12T13:23:27.319Z,4.03
2018-04-12T13:26:11.313Z,5.13
2018-04-12T13:28:51.292Z,4.83
2018-04-12T13:31:42.518Z,5.03
2018-04-12T13:34:24.854Z,3.87
2018-04-12T13:37:28.379Z,3.53
2018-04-12T13:40:09.308Z,3.17
2018-04-12T13:45:44.455Z,4.63
2018-04-12T13:51:20.600Z,2.93
2018-04-12T14:16:54.098Z,2.87
2018-04-12T14:19:38.775Z,3.00
2018-04-12T14:22:19.639Z,4.13
2018-04-12T14:38:18.571Z,4.63
2018-04-12T14:41:02.621Z,4.10
2018-04-12T14:46:36.097Z,5.13
2018-04-12T15:02:30.775Z,4.57
2018-04-12T15:05:20.891Z,4.30
2018-04-12T15:07:59.465Z,4.20
2018-04-12T15:10:51.880Z,3.83
2018-04-12T15:13:34.289Z,4.10
2018-04-12T15:16:20.851Z,3.70
2018-04-12T15:18:58.900Z,4.67
2018-04-12T15:21:37.892Z,4.67
2018-04-12T15:24:21.010Z,3.63
2018-04-12T15:27:16.357Z,4.20
2018-04-12T15:30:05.045Z,5.20
2018-04-12T15:32:43.114Z,4.27
2018-04-12T15:35:21.754Z,4.03
2018-04-12T15:38:03.102Z,4.10
2018-04-12T15:40:54.312Z,4.50
2018-04-12T15:43:46.374Z,4.10
2018-04-12T15:46:30.196Z,3.90
2018-04-12T15:49:11.084Z,3.87
2018-04-12T15:52:03.289Z,3.83
2018-04-12T15:54:43.582Z,3.43
2018-04-12T15:57:27.333Z,3.80
2018-04-12T16:00:07.518Z,3.30
2018-04-12T16:02:49.711Z,3.43
2018-04-12T16:05:41.353Z,4.50
2018-04-12T16:11:11.616Z,3.43
2018-04-12T16:14:09.284Z,3.23
2018-04-12T16:16:48.916Z,3.07
2018-04-12T16:19:26.807Z,3.60
2018-04-12T16:54:42.821Z,4.77
2018-04-12T16:57:45.886Z,4.23
2018-04-12T17:00:37.671Z,4.47
2018-04-12T17:03:18.381Z,8.57
2018-04-12T17:05:57.398Z,7.53
2018-04-12T17:08:35.208Z,3.83
2018-04-12T17:11:13.173Z,4.70
2018-04-12T17:14:06.271Z,4.10
2018-04-12T17:16:50.734Z,4.57
2018-04-12T17:19:37.820Z,4.17
2018-04-12T17:22:21.125Z,4.30
2018-04-12T17:25:16.302Z,4.20
2018-04-12T17:27:55.793Z,4.27
2018-04-12T17:30:40.678Z,4.33
2018-04-12T17:33:36.726Z,5.40
2018-04-12T17:36:22.251Z,9.40
2018-04-12T17:39:01.141Z,7.80
2018-04-12T17:41:45.228Z,6.60
2018-04-12T17:44:26.753Z,5.57
2018-04-12T17:47:10.148Z,6.87
2018-04-12T17:49:53.164Z,6.77
2018-04-12T17:52:33.501Z,5.37
2018-04-12T17:55:24.457Z,3.60
2018-04-12T17:58:03.389Z,3.80
2018-04-12T18:00:42.436Z,3.27
2018-04-12T18:03:20.834Z,3.00
2018-04-12T18:05:59.797Z,3.73
2018-04-12T18:08:39.723Z,4.70
2018-04-12T18:11:18.072Z,22.70
2018-04-12T18:13:56.904Z,5.27
2018-04-12T18:16:54.022Z,5.10
2018-04-12T18:19:37.813Z,5.70
2018-04-12T18:22:20.494Z,4.10
2018-04-12T18:24:58.303Z,4.77
2018-04-12T18:27:42.499Z,5.20
2018-04-12T18:30:20.466Z,5.03
2018-04-12T18:33:00.005Z,5.10
2018-04-12T18:35:41.913Z,7.47
2018-04-12T18:38:25.793Z,5.80
2018-04-12T18:41:10.899Z,3.87
2018-04-12T18:43:49.364Z,1.80
2018-04-12T18:46:35.937Z,2.57
2018-04-12T18:49:13.788Z,2.50
2018-04-12T18:51:56.199Z,2.93
2018-04-12T18:54:37.918Z,2.90
2018-04-12T18:57:21.622Z,2.30
2018-04-12T19:00:01.635Z,2.73
2018-04-12T19:02:43.105Z,2.97
2018-04-12T19:05:24.839Z,2.53
2018-04-12T19:08:06.573Z,3.17
2018-04-12T19:10:45.988Z,3.17
2018-04-12T19:13:32.214Z,3.57
2018-04-12T19:16:15.384Z,4.33
2018-04-12T19:18:53.633Z,3.53
2018-04-12T19:21:32.600Z,3.27
2018-04-12T19:24:10.635Z,3.27
2018-04-12T19:26:48.669Z,3.77
2018-04-12T19:29:29.537Z,3.80
2018-04-12T19:32:08.350Z,4.03
2018-04-12T19:34:47.492Z,3.37
2018-04-12T19:37:29.990Z,3.23
2018-04-12T19:40:08.975Z,3.50
2018-04-12T19:42:55.267Z,3.80
2018-04-12T19:45:33.655Z,3.77
2018-04-12T19:48:11.660Z,4.30
2018-04-12T19:50:52.241Z,3.60
2018-04-12T19:53:36.327Z,3.63
2018-04-12T19:56:14.893Z,3.80
2018-04-12T19:58:54.306Z,3.50
2018-04-12T20:01:33.007Z,4.07
2018-04-12T20:04:16.013Z,3.70
2018-04-12T20:06:54.518Z,4.10
2018-04-12T20:09:39.632Z,3.47
2018-04-12T20:12:20.356Z,4.10
2018-04-12T20:15:00.759Z,3.60
2018-04-12T20:17:42.172Z,3.60
2018-04-12T20:20:22.413Z,4.47
2018-04-12T20:23:13.992Z,3.90
2018-04-12T20:25:54.513Z,3.60
2018-04-12T20:28:44.888Z,4.03
2018-04-12T20:31:29.279Z,4.07
2018-04-12T20:34:08.269Z,4.43
2018-04-12T20:36:56.116Z,4.53
2018-04-12T20:39:34.171Z,4.27
2018-04-12T20:42:21.671Z,4.53
2018-04-12T20:45:00.328Z,3.50
2018-04-12T20:47:38.305Z,4.20
2018-04-12T20:50:23.708Z,5.67
2018-04-12T20:53:06.912Z,4.67
2018-04-12T20:55:46.266Z,4.53
2018-04-12T20:58:25.249Z,5.90
2018-04-12T21:01:03.243Z,4.60
2018-04-12T21:03:48.827Z,4.83
2018-04-12T21:06:27.001Z,4.10
2018-04-12T21:09:06.181Z,5.10
2018-04-12T21:11:45.153Z,5.60
2018-04-12T21:14:25.326Z,4.77
2018-04-12T21:17:03.612Z,5.20
2018-04-12T21:19:43.729Z,4.90
2018-04-12T21:22:27.342Z,5.30
2018-04-12T21:25:11.461Z,5.10
2018-04-12T21:27:55.427Z,4.90
2018-04-12T21:30:39.059Z,5.47
2018-04-12T21:33:23.022Z,5.90
2018-04-12T21:36:09.645Z,5.97
2018-04-12T21:38:47.554Z,5.70
2018-04-12T21:41:32.787Z,5.27
2018-04-12T21:44:12.099Z,4.20
2018-04-12T21:46:50.190Z,5.20
2018-04-12T21:49:38.997Z,4.03
2018-04-12T21:52:28.879Z,4.30
2018-04-12T21:55:07.048Z,4.57
2018-04-12T21:57:48.315Z,4.83
2018-04-12T22:00:27.515Z,5.20
2018-04-12T22:03:05.647Z,4.93
2018-04-12T22:05:52.507Z,6.73
2018-04-12T22:08:30.569Z,5.00
2018-04-12T22:11:08.678Z,4.90
2018-04-12T22:13:49.926Z,4.77
2018-04-12T22:16:29.177Z,5.03
2018-04-12T22:19:07.318Z,5.03
2018-04-12T22:21:53.710Z,5.17
2018-04-12T22:24:32.046Z,5.70
2018-04-12T22:27:15.192Z,5.63
2018-04-12T22:30:09.934Z,5.37
2018-04-12T22:32:55.705Z,5.60
2018-04-12T22:35:34.936Z,5.23
2018-04-12T22:38:18.564Z,5.03
2018-04-12T22:40:57.100Z,5.70
2018-04-12T22:43:35.081Z,5.70
2018-04-12T22:46:14.579Z,5.40
2018-04-12T22:48:57.644Z,6.30
2018-04-12T22:51:41.373Z,6.10
2018-04-12T22:54:36.470Z,5.37
2018-04-12T22:57:19.815Z,6.27
2018-04-12T22:59:58.392Z,6.77
2018-04-12T23:02:37.623Z,7.00
2018-04-12T23:05:16.648Z,7.00
2018-04-12T23:08:00.983Z,5.67
2018-04-12T23:10:52.636Z,5.93
2018-04-12T23:13:37.505Z,5.80
2018-04-12T23:16:21.927Z,5.60
2018-04-12T23:19:00.596Z,6.57
2018-04-12T23:21:39.706Z,5.50
2018-04-12T23:24:17.877Z,6.00
2018-04-12T23:27:02.185Z,6.17
2018-04-12T23:29:46.767Z,6.03
2018-04-12T23:32:24.830Z,6.57
2018-04-12T23:35:08.247Z,6.07
2018-04-12T23:37:52.094Z,6.17
2018-04-12T23:40:31.361Z,6.40
2018-04-12T23:43:10.869Z,6.07
2018-04-12T23:45:48.786Z,5.47
2018-04-12T23:48:26.506Z,6.10
2018-04-12T23:51:11.634Z,5.27
2018-04-12T23:53:55.063Z,6.00
2018-04-12T23:56:32.878Z,5.87
2018-04-12T23:59:11.103Z,6.97
